sensor_id;sensor_type;location;lat;lon;timestamp;P1;durP1;ratioP1;P2;durP2;ratioP2
63201;SDS011;49296;48.188;11.566;2023-08-21T00:01:22;12.73;;;10.48;;
63201;SDS011;49296;48.188;11.566;2023-08-21T00:03:50;10.75;;;9.55;;
63201;SDS011;49296;48.188;11.566;2023-08-21T00:06:17;11.25;;;9.57;;
63201;SDS011;49296;48.188;11.566;2023-08-21T00:08:43;12.65;;;10.15;;
63201;SDS011;49296;48.188;11.566;2023-08-21T00:11:10;12.65;;;10.63;;
63201;SDS011;49296;48.188;11.566;2023-08-21T00:13:36;11.60;;;10.07;;
63201;SDS011;49296;48.188;11.566;2023-08-21T00:16:03;12.48;;;10.60;;
63201;SDS011;49296;48.188;11.566;2023-08-21T00:18:30;10.98;;;9.85;;
63201;SDS011;49296;48.188;11.566;2023-08-21T00:20:58;11.35;;;10.23;;
63201;SDS011;49296;48.188;11.566;2023-08-21T00:23:24;10.68;;;9.57;;
63201;SDS011;49296;48.188;11.566;2023-08-21T00:25:51;11.57;;;10.13;;
63201;SDS011;49296;48.188;11.566;2023-08-21T00:28:18;11.70;;;10.10;;
63201;SDS011;49296;48.188;11.566;2023-08-21T00:30:45;11.23;;;10.00;;
63201;SDS011;49296;48.188;11.566;2023-08-21T00:33:11;11.85;;;10.65;;
63201;SDS011;49296;48.188;11.566;2023-08-21T00:35:38;12.70;;;10.13;;
63201;SDS011;49296;48.188;11.566;2023-08-21T00:38:06;11.80;;;10.70;;
63201;SDS011;49296;48.188;11.566;2023-08-21T00:40:32;11.50;;;10.32;;
63201;SDS011;49296;48.188;11.566;2023-08-21T00:42:59;11.57;;;10.38;;
63201;SDS011;49296;48.188;11.566;2023-08-21T00:45:26;10.77;;;9.68;;
63201;SDS011;49296;48.188;11.566;2023-08-21T00:47:53;11.40;;;10.10;;
63201;SDS011;49296;48.188;11.566;2023-08-21T00:50:20;12.13;;;10.10;;
63201;SDS011;49296;48.188;11.566;2023-08-21T00:52:47;11.27;;;10.18;;
63201;SDS011;49296;48.188;11.566;2023-08-21T00:55:16;11.73;;;10.55;;
63201;SDS011;49296;48.188;11.566;2023-08-21T00:57:43;11.90;;;10.73;;
63201;SDS011;49296;48.188;11.566;2023-08-21T01:00:11;11.73;;;10.52;;
63201;SDS011;49296;48.188;11.566;2023-08-21T01:02:39;12.05;;;10.85;;
63201;SDS011;49296;48.188;11.566;2023-08-21T01:05:06;12.85;;;11.48;;
63201;SDS011;49296;48.188;11.566;2023-08-21T01:07:36;13.23;;;11.43;;
63201;SDS011;49296;48.188;11.566;2023-08-21T01:10:09;12.40;;;11.20;;
63201;SDS011;49296;48.188;11.566;2023-08-21T01:12:45;12.18;;;10.98;;
63201;SDS011;49296;48.188;11.566;2023-08-21T01:15:16;12.93;;;11.52;;
63201;SDS011;49296;48.188;11.566;2023-08-21T01:17:44;12.52;;;11.23;;
63201;SDS011;49296;48.188;11.566;2023-08-21T01:20:13;13.05;;;10.88;;
63201;SDS011;49296;48.188;11.566;2023-08-21T01:22:41;11.77;;;10.55;;
63201;SDS011;49296;48.188;11.566;2023-08-21T01:25:12;12.93;;;11.63;;
63201;SDS011;49296;48.188;11.566;2023-08-21T01:27:41;12.20;;;11.02;;
63201;SDS011;49296;48.188;11.566;2023-08-21T01:30:09;12.57;;;11.38;;
63201;SDS011;49296;48.188;11.566;2023-08-21T01:32:40;13.43;;;12.02;;
63201;SDS011;49296;48.188;11.566;2023-08-21T01:35:13;13.38;;;12.07;;
63201;SDS011;49296;48.188;11.566;2023-08-21T01:37:41;13.98;;;12.48;;
63201;SDS011;49296;48.188;11.566;2023-08-21T01:40:09;14.38;;;12.50;;
63201;SDS011;49296;48.188;11.566;2023-08-21T01:42:37;14.88;;;12.38;;
63201;SDS011;49296;48.188;11.566;2023-08-21T01:45:04;14.13;;;12.63;;
63201;SDS011;49296;48.188;11.566;2023-08-21T01:47:32;14.43;;;12.90;;
63201;SDS011;49296;48.188;11.566;2023-08-21T01:49:59;15.07;;;13.23;;
63201;SDS011;49296;48.188;11.566;2023-08-21T01:52:25;13.10;;;11.80;;
63201;SDS011;49296;48.188;11.566;2023-08-21T01:54:52;13.30;;;11.82;;
63201;SDS011;49296;48.188;11.566;2023-08-21T01:57:19;12.30;;;11.00;;
63201;SDS011;49296;48.188;11.566;2023-08-21T01:59:47;12.68;;;11.38;;
63201;SDS011;49296;48.188;11.566;2023-08-21T02:02:14;11.88;;;10.68;;
63201;SDS011;49296;48.188;11.566;2023-08-21T02:04:40;11.73;;;10.52;;
63201;SDS011;49296;48.188;11.566;2023-08-21T02:07:07;10.52;;;9.35;;
63201;SDS011;49296;48.188;11.566;2023-08-21T02:09:33;10.98;;;8.90;;
63201;SDS011;49296;48.188;11.566;2023-08-21T02:12:00;11.38;;;8.93;;
63201;SDS011;49296;48.188;11.566;2023-08-21T02:14:27;11.18;;;8.82;;
63201;SDS011;49296;48.188;11.566;2023-08-21T02:16:55;10.25;;;9.13;;
63201;SDS011;49296;48.188;11.566;2023-08-21T02:19:22;10.90;;;9.10;;
63201;SDS011;49296;48.188;11.566;2023-08-21T02:21:48;8.90;;;8.00;;
63201;SDS011;49296;48.188;11.566;2023-08-21T02:24:15;9.65;;;8.65;;
63201;SDS011;49296;48.188;11.566;2023-08-21T02:26:42;11.15;;;9.40;;
63201;SDS011;49296;48.188;11.566;2023-08-21T02:29:10;10.07;;;9.00;;
63201;SDS011;49296;48.188;11.566;2023-08-21T02:31:37;8.70;;;7.80;;
63201;SDS011;49296;48.188;11.566;2023-08-21T02:34:05;9.05;;;7.72;;
63201;SDS011;49296;48.188;11.566;2023-08-21T02:36:32;9.13;;;8.02;;
63201;SDS011;49296;48.188;11.566;2023-08-21T02:38:58;9.48;;;7.78;;
63201;SDS011;49296;48.188;11.566;2023-08-21T02:41:25;8.57;;;7.15;;
63201;SDS011;49296;48.188;11.566;2023-08-21T02:43:51;10.38;;;9.15;;
63201;SDS011;49296;48.188;11.566;2023-08-21T02:46:18;9.10;;;7.72;;
63201;SDS011;49296;48.188;11.566;2023-08-21T02:48:45;8.13;;;7.30;;
63201;SDS011;49296;48.188;11.566;2023-08-21T02:51:13;9.32;;;8.07;;
63201;SDS011;49296;48.188;11.566;2023-08-21T02:53:40;8.32;;;7.47;;
63201;SDS011;49296;48.188;11.566;2023-08-21T02:56:06;8.55;;;7.68;;
63201;SDS011;49296;48.188;11.566;2023-08-21T02:58:33;9.38;;;8.48;;
63201;SDS011;49296;48.188;11.566;2023-08-21T03:00:59;8.93;;;7.63;;
63201;SDS011;49296;48.188;11.566;2023-08-21T03:03:26;10.82;;;8.70;;
63201;SDS011;49296;48.188;11.566;2023-08-21T03:05:53;9.80;;;8.18;;
63201;SDS011;49296;48.188;11.566;2023-08-21T03:08:20;9.48;;;8.48;;
63201;SDS011;49296;48.188;11.566;2023-08-21T03:10:47;9.63;;;8.63;;
63201;SDS011;49296;48.188;11.566;2023-08-21T03:13:14;10.32;;;9.32;;
63201;SDS011;49296;48.188;11.566;2023-08-21T03:15:40;11.82;;;8.93;;
63201;SDS011;49296;48.188;11.566;2023-08-21T03:18:08;11.00;;;8.48;;
63201;SDS011;49296;48.188;11.566;2023-08-21T03:20:34;11.30;;;8.95;;
63201;SDS011;49296;48.188;11.566;2023-08-21T03:23:01;8.95;;;8.07;;
63201;SDS011;49296;48.188;11.566;2023-08-21T03:25:29;12.10;;;8.73;;
63201;SDS011;49296;48.188;11.566;2023-08-21T03:27:56;9.65;;;8.20;;
63201;SDS011;49296;48.188;11.566;2023-08-21T03:30:22;9.63;;;8.10;;
63201;SDS011;49296;48.188;11.566;2023-08-21T03:32:49;11.20;;;8.95;;
63201;SDS011;49296;48.188;11.566;2023-08-21T03:35:16;9.77;;;8.77;;
63201;SDS011;49296;48.188;11.566;2023-08-21T03:37:42;10.52;;;8.73;;
63201;SDS011;49296;48.188;11.566;2023-08-21T03:40:09;9.93;;;8.80;;
63201;SDS011;49296;48.188;11.566;2023-08-21T03:42:38;10.43;;;9.18;;
63201;SDS011;49296;48.188;11.566;2023-08-21T03:45:05;11.57;;;10.43;;
63201;SDS011;49296;48.188;11.566;2023-08-21T03:47:32;11.23;;;10.02;;
63201;SDS011;49296;48.188;11.566;2023-08-21T03:49:59;11.07;;;9.93;;
63201;SDS011;49296;48.188;11.566;2023-08-21T03:52:26;12.48;;;10.88;;
63201;SDS011;49296;48.188;11.566;2023-08-21T03:54:52;12.27;;;10.30;;
63201;SDS011;49296;48.188;11.566;2023-08-21T03:57:19;11.98;;;10.70;;
63201;SDS011;49296;48.188;11.566;2023-08-21T03:59:47;11.43;;;10.20;;
63201;SDS011;49296;48.188;11.566;2023-08-21T04:02:13;12.55;;;10.63;;
63201;SDS011;49296;48.188;11.566;2023-08-21T04:04:40;12.05;;;10.63;;
63201;SDS011;49296;48.188;11.566;2023-08-21T04:07:06;12.00;;;10.63;;
63201;SDS011;49296;48.188;11.566;2023-08-21T04:09:33;12.45;;;10.25;;
63201;SDS011;49296;48.188;11.566;2023-08-21T04:12:00;11.75;;;10.57;;
63201;SDS011;49296;48.188;11.566;2023-08-21T04:14:26;11.45;;;10.23;;
63201;SDS011;49296;48.188;11.566;2023-08-21T04:16:54;12.75;;;10.05;;
63201;SDS011;49296;48.188;11.566;2023-08-21T04:19:21;11.38;;;9.05;;
63201;SDS011;49296;48.188;11.566;2023-08-21T04:21:47;11.40;;;10.15;;
63201;SDS011;49296;48.188;11.566;2023-08-21T04:24:14;11.75;;;9.68;;
63201;SDS011;49296;48.188;11.566;2023-08-21T04:26:41;11.10;;;9.25;;
63201;SDS011;49296;48.188;11.566;2023-08-21T04:29:07;10.90;;;9.55;;
63201;SDS011;49296;48.188;11.566;2023-08-21T04:31:35;13.65;;;10.63;;
63201;SDS011;49296;48.188;11.566;2023-08-21T04:34:02;13.63;;;11.23;;
63201;SDS011;49296;48.188;11.566;2023-08-21T04:36:29;12.30;;;11.00;;
63201;SDS011;49296;48.188;11.566;2023-08-21T04:38:56;13.77;;;12.48;;
63201;SDS011;49296;48.188;11.566;2023-08-21T04:41:22;14.95;;;11.93;;
63201;SDS011;49296;48.188;11.566;2023-08-21T04:43:49;12.80;;;11.25;;
63201;SDS011;49296;48.188;11.566;2023-08-21T04:46:16;13.93;;;11.82;;
63201;SDS011;49296;48.188;11.566;2023-08-21T04:48:42;13.60;;;11.57;;
63201;SDS011;49296;48.188;11.566;2023-08-21T04:51:10;14.18;;;12.07;;
63201;SDS011;49296;48.188;11.566;2023-08-21T04:53:37;14.93;;;12.52;;
63201;SDS011;49296;48.188;11.566;2023-08-21T04:56:04;14.57;;;12.65;;
63201;SDS011;49296;48.188;11.566;2023-08-21T04:58:30;14.60;;;12.95;;
63201;SDS011;49296;48.188;11.566;2023-08-21T05:00:57;15.35;;;13.30;;
63201;SDS011;49296;48.188;11.566;2023-08-21T05:03:24;15.20;;;12.52;;
63201;SDS011;49296;48.188;11.566;2023-08-21T05:05:53;15.23;;;12.85;;
63201;SDS011;49296;48.188;11.566;2023-08-21T05:08:23;14.95;;;11.90;;
63201;SDS011;49296;48.188;11.566;2023-08-21T05:10:53;14.93;;;13.02;;
63201;SDS011;49296;48.188;11.566;2023-08-21T05:13:20;15.68;;;12.30;;
63201;SDS011;49296;48.188;11.566;2023-08-21T05:15:50;14.45;;;12.55;;
63201;SDS011;49296;48.188;11.566;2023-08-21T05:20:44;12.93;;;11.07;;
63201;SDS011;49296;48.188;11.566;2023-08-21T05:23:10;14.50;;;11.23;;
63201;SDS011;49296;48.188;11.566;2023-08-21T05:25:38;13.10;;;11.48;;
63201;SDS011;49296;48.188;11.566;2023-08-21T05:28:05;12.15;;;10.82;;
63201;SDS011;49296;48.188;11.566;2023-08-21T05:30:32;11.55;;;10.35;;
63201;SDS011;49296;48.188;11.566;2023-08-21T05:33:01;12.20;;;9.70;;
63201;SDS011;49296;48.188;11.566;2023-08-21T05:35:28;12.80;;;10.50;;
63201;SDS011;49296;48.188;11.566;2023-08-21T05:37:55;12.10;;;10.50;;
63201;SDS011;49296;48.188;11.566;2023-08-21T05:40:21;11.30;;;10.05;;
63201;SDS011;49296;48.188;11.566;2023-08-21T05:42:49;11.77;;;10.27;;
63201;SDS011;49296;48.188;11.566;2023-08-21T05:45:16;11.30;;;10.07;;
63201;SDS011;49296;48.188;11.566;2023-08-21T05:47:43;11.95;;;10.40;;
63201;SDS011;49296;48.188;11.566;2023-08-21T05:50:09;11.60;;;9.80;;
63201;SDS011;49296;48.188;11.566;2023-08-21T05:52:36;12.07;;;10.02;;
63201;SDS011;49296;48.188;11.566;2023-08-21T05:55:03;12.95;;;9.43;;
63201;SDS011;49296;48.188;11.566;2023-08-21T05:57:30;11.27;;;8.93;;
63201;SDS011;49296;48.188;11.566;2023-08-21T05:59:58;14.27;;;9.07;;
63201;SDS011;49296;48.188;11.566;2023-08-21T06:02:25;11.80;;;7.78;;
63201;SDS011;49296;48.188;11.566;2023-08-21T06:04:51;13.80;;;9.07;;
63201;SDS011;49296;48.188;11.566;2023-08-21T06:07:18;11.52;;;8.63;;
63201;SDS011;49296;48.188;11.566;2023-08-21T06:09:45;10.73;;;8.52;;
63201;SDS011;49296;48.188;11.566;2023-08-21T06:12:11;11.50;;;8.57;;
63201;SDS011;49296;48.188;11.566;2023-08-21T06:14:38;9.45;;;8.55;;
63201;SDS011;49296;48.188;11.566;2023-08-21T06:17:06;11.85;;;8.48;;
63201;SDS011;49296;48.188;11.566;2023-08-21T06:19:32;13.70;;;9.77;;
63201;SDS011;49296;48.188;11.566;2023-08-21T06:21:59;11.73;;;9.98;;
63201;SDS011;49296;48.188;11.566;2023-08-21T06:24:26;11.93;;;8.43;;
63201;SDS011;49296;48.188;11.566;2023-08-21T06:26:52;10.68;;;9.10;;
63201;SDS011;49296;48.188;11.566;2023-08-21T06:29:19;11.63;;;9.07;;
63201;SDS011;49296;48.188;11.566;2023-08-21T06:31:46;11.32;;;8.90;;
63201;SDS011;49296;48.188;11.566;2023-08-21T06:34:14;12.95;;;9.55;;
63201;SDS011;49296;48.188;11.566;2023-08-21T06:36:41;11.30;;;9.15;;
63201;SDS011;49296;48.188;11.566;2023-08-21T06:39:08;11.73;;;9.55;;
63201;SDS011;49296;48.188;11.566;2023-08-21T06:41:35;10.77;;;9.60;;
63201;SDS011;49296;48.188;11.566;2023-08-21T06:44:01;11.23;;;9.00;;
63201;SDS011;49296;48.188;11.566;2023-08-21T06:46:28;10.52;;;8.65;;
63201;SDS011;49296;48.188;11.566;2023-08-21T06:48:54;12.07;;;10.00;;
63201;SDS011;49296;48.188;11.566;2023-08-21T06:51:23;12.00;;;9.48;;
63201;SDS011;49296;48.188;11.566;2023-08-21T06:53:49;11.45;;;9.68;;
63201;SDS011;49296;48.188;11.566;2023-08-21T06:56:16;11.02;;;8.98;;
63201;SDS011;49296;48.188;11.566;2023-08-21T06:58:42;10.65;;;9.27;;
63201;SDS011;49296;48.188;11.566;2023-08-21T07:01:09;11.30;;;9.18;;
63201;SDS011;49296;48.188;11.566;2023-08-21T07:03:36;12.55;;;9.52;;
63201;SDS011;49296;48.188;11.566;2023-08-21T07:06:02;10.65;;;9.40;;
63201;SDS011;49296;48.188;11.566;2023-08-21T07:08:30;10.25;;;8.85;;
63201;SDS011;49296;48.188;11.566;2023-08-21T07:10:57;11.05;;;9.10;;
63201;SDS011;49296;48.188;11.566;2023-08-21T07:13:23;14.52;;;9.52;;
63201;SDS011;49296;48.188;11.566;2023-08-21T07:15:52;11.52;;;9.57;;
63201;SDS011;49296;48.188;11.566;2023-08-21T07:18:20;10.80;;;8.68;;
63201;SDS011;49296;48.188;11.566;2023-08-21T07:20:46;10.40;;;8.93;;
63201;SDS011;49296;48.188;11.566;2023-08-21T07:23:13;11.18;;;9.15;;
63201;SDS011;49296;48.188;11.566;2023-08-21T07:25:41;10.85;;;9.63;;
63201;SDS011;49296;48.188;11.566;2023-08-21T07:28:07;11.20;;;9.20;;
63201;SDS011;49296;48.188;11.566;2023-08-21T07:30:36;10.63;;;8.75;;
63201;SDS011;49296;48.188;11.566;2023-08-21T07:33:03;11.45;;;10.05;;
63201;SDS011;49296;48.188;11.566;2023-08-21T07:35:30;10.93;;;9.02;;
63201;SDS011;49296;48.188;11.566;2023-08-21T07:37:57;12.20;;;9.70;;
63201;SDS011;49296;48.188;11.566;2023-08-21T07:40:23;12.13;;;8.90;;
63201;SDS011;49296;48.188;11.566;2023-08-21T07:42:52;10.32;;;9.20;;
63201;SDS011;49296;48.188;11.566;2023-08-21T07:45:18;9.80;;;8.80;;
63201;SDS011;49296;48.188;11.566;2023-08-21T07:47:45;9.73;;;8.35;;
63201;SDS011;49296;48.188;11.566;2023-08-21T07:50:11;9.98;;;8.82;;
63201;SDS011;49296;48.188;11.566;2023-08-21T07:52:39;9.85;;;8.38;;
63201;SDS011;49296;48.188;11.566;2023-08-21T07:55:06;10.10;;;8.93;;
63201;SDS011;49296;48.188;11.566;2023-08-21T07:57:33;11.73;;;9.52;;
63201;SDS011;49296;48.188;11.566;2023-08-21T08:00:01;9.63;;;8.63;;
63201;SDS011;49296;48.188;11.566;2023-08-21T08:02:29;9.77;;;8.77;;
63201;SDS011;49296;48.188;11.566;2023-08-21T08:04:56;11.48;;;9.95;;
63201;SDS011;49296;48.188;11.566;2023-08-21T08:07:22;10.70;;;9.60;;
63201;SDS011;49296;48.188;11.566;2023-08-21T08:09:49;10.43;;;9.32;;
63201;SDS011;49296;48.188;11.566;2023-08-21T08:12:16;12.07;;;8.80;;
63201;SDS011;49296;48.188;11.566;2023-08-21T08:14:43;12.05;;;9.13;;
63201;SDS011;49296;48.188;11.566;2023-08-21T08:17:10;10.57;;;9.57;;
63201;SDS011;49296;48.188;11.566;2023-08-21T08:19:37;10.55;;;9.40;;
63201;SDS011;49296;48.188;11.566;2023-08-21T08:22:04;10.75;;;9.10;;
63201;SDS011;49296;48.188;11.566;2023-08-21T08:24:30;11.00;;;9.88;;
63201;SDS011;49296;48.188;11.566;2023-08-21T08:26:57;10.70;;;9.65;;
63201;SDS011;49296;48.188;11.566;2023-08-21T08:29:23;9.73;;;8.82;;
63201;SDS011;49296;48.188;11.566;2023-08-21T08:31:50;10.13;;;9.13;;
63201;SDS011;49296;48.188;11.566;2023-08-21T08:34:18;11.77;;;9.43;;
63201;SDS011;49296;48.188;11.566;2023-08-21T08:36:45;10.23;;;9.00;;
63201;SDS011;49296;48.188;11.566;2023-08-21T08:39:12;10.65;;;8.93;;
63201;SDS011;49296;48.188;11.566;2023-08-21T08:41:44;10.50;;;9.23;;
63201;SDS011;49296;48.188;11.566;2023-08-21T08:44:17;10.13;;;9.02;;
63201;SDS011;49296;48.188;11.566;2023-08-21T08:46:44;10.05;;;8.85;;
63201;SDS011;49296;48.188;11.566;2023-08-21T08:49:11;10.32;;;9.27;;
63201;SDS011;49296;48.188;11.566;2023-08-21T08:51:40;9.63;;;8.45;;
63201;SDS011;49296;48.188;11.566;2023-08-21T08:54:09;9.65;;;8.65;;
63201;SDS011;49296;48.188;11.566;2023-08-21T08:56:37;9.43;;;8.43;;
63201;SDS011;49296;48.188;11.566;2023-08-21T08:59:03;10.27;;;8.65;;
63201;SDS011;49296;48.188;11.566;2023-08-21T09:01:31;9.98;;;8.98;;
63201;SDS011;49296;48.188;11.566;2023-08-21T09:03:58;9.73;;;8.82;;
63201;SDS011;49296;48.188;11.566;2023-08-21T09:06:25;8.25;;;6.60;;
63201;SDS011;49296;48.188;11.566;2023-08-21T09:08:54;8.85;;;7.50;;
63201;SDS011;49296;48.188;11.566;2023-08-21T09:11:21;9.55;;;8.00;;
63201;SDS011;49296;48.188;11.566;2023-08-21T09:13:49;9.00;;;8.10;;
63201;SDS011;49296;48.188;11.566;2023-08-21T09:16:17;10.73;;;8.55;;
63201;SDS011;49296;48.188;11.566;2023-08-21T09:18:46;8.57;;;7.70;;
63201;SDS011;49296;48.188;11.566;2023-08-21T09:23:41;9.98;;;7.57;;
63201;SDS011;49296;48.188;11.566;2023-08-21T09:26:09;8.57;;;7.68;;
63201;SDS011;49296;48.188;11.566;2023-08-21T09:28:36;8.77;;;7.88;;
63201;SDS011;49296;48.188;11.566;2023-08-21T09:31:03;8.30;;;7.40;;
63201;SDS011;49296;48.188;11.566;2023-08-21T09:33:30;8.88;;;6.90;;
63201;SDS011;49296;48.188;11.566;2023-08-21T09:35:57;8.48;;;7.45;;
63201;SDS011;49296;48.188;11.566;2023-08-21T09:38:25;9.02;;;7.43;;
63201;SDS011;49296;48.188;11.566;2023-08-21T09:40:52;10.25;;;8.35;;
63201;SDS011;49296;48.188;11.566;2023-08-21T09:43:22;10.45;;;8.73;;
63201;SDS011;49296;48.188;11.566;2023-08-21T09:45:50;11.60;;;7.65;;
63201;SDS011;49296;48.188;11.566;2023-08-21T09:48:21;9.07;;;8.18;;
63201;SDS011;49296;48.188;11.566;2023-08-21T09:50:49;10.88;;;8.00;;
63201;SDS011;49296;48.188;11.566;2023-08-21T09:53:17;10.70;;;7.38;;
63201;SDS011;49296;48.188;11.566;2023-08-21T09:55:43;12.00;;;8.02;;
63201;SDS011;49296;48.188;11.566;2023-08-21T09:58:11;8.65;;;7.80;;
63201;SDS011;49296;48.188;11.566;2023-08-21T10:00:40;8.57;;;7.63;;
63201;SDS011;49296;48.188;11.566;2023-08-21T10:03:08;8.70;;;7.80;;
63201;SDS011;49296;48.188;11.566;2023-08-21T10:05:36;7.78;;;6.97;;
63201;SDS011;49296;48.188;11.566;2023-08-21T10:08:05;8.38;;;7.03;;
63201;SDS011;49296;48.188;11.566;2023-08-21T10:10:32;7.82;;;7.00;;
63201;SDS011;49296;48.188;11.566;2023-08-21T10:13:00;7.90;;;7.10;;
63201;SDS011;49296;48.188;11.566;2023-08-21T10:15:28;8.52;;;6.90;;
63201;SDS011;49296;48.188;11.566;2023-08-21T10:17:57;6.85;;;6.15;;
63201;SDS011;49296;48.188;11.566;2023-08-21T10:20:25;6.68;;;5.95;;
63201;SDS011;49296;48.188;11.566;2023-08-21T10:22:53;7.45;;;6.72;;
63201;SDS011;49296;48.188;11.566;2023-08-21T10:25:21;7.05;;;6.05;;
63201;SDS011;49296;48.188;11.566;2023-08-21T10:27:52;6.82;;;6.13;;
63201;SDS011;49296;48.188;11.566;2023-08-21T10:30:20;9.23;;;7.20;;
63201;SDS011;49296;48.188;11.566;2023-08-21T10:32:48;8.23;;;7.43;;
63201;SDS011;49296;48.188;11.566;2023-08-21T10:35:17;7.22;;;6.47;;
63201;SDS011;49296;48.188;11.566;2023-08-21T10:40:34;8.77;;;7.00;;
63201;SDS011;49296;48.188;11.566;2023-08-21T10:43:01;6.85;;;6.15;;
63201;SDS011;49296;48.188;11.566;2023-08-21T10:45:28;7.65;;;6.40;;
63201;SDS011;49296;48.188;11.566;2023-08-21T10:47:56;7.07;;;6.03;;
63201;SDS011;49296;48.188;11.566;2023-08-21T10:50:25;8.00;;;7.20;;
63201;SDS011;49296;48.188;11.566;2023-08-21T10:52:52;8.60;;;7.07;;
63201;SDS011;49296;48.188;11.566;2023-08-21T10:55:20;7.63;;;6.82;;
63201;SDS011;49296;48.188;11.566;2023-08-21T10:57:47;7.72;;;6.93;;
63201;SDS011;49296;48.188;11.566;2023-08-21T11:00:15;10.15;;;7.78;;
63201;SDS011;49296;48.188;11.566;2023-08-21T11:02:43;9.93;;;7.68;;
63201;SDS011;49296;48.188;11.566;2023-08-21T11:05:11;10.00;;;7.40;;
63201;SDS011;49296;48.188;11.566;2023-08-21T11:07:40;8.13;;;7.28;;
63201;SDS011;49296;48.188;11.566;2023-08-21T11:10:10;11.38;;;8.13;;
63201;SDS011;49296;48.188;11.566;2023-08-21T11:12:38;7.82;;;7.03;;
63201;SDS011;49296;48.188;11.566;2023-08-21T11:15:14;7.50;;;6.43;;
63201;SDS011;49296;48.188;11.566;2023-08-21T11:17:42;7.28;;;6.53;;
63201;SDS011;49296;48.188;11.566;2023-08-21T11:20:09;7.35;;;6.47;;
63201;SDS011;49296;48.188;11.566;2023-08-21T11:22:36;7.65;;;6.45;;
63201;SDS011;49296;48.188;11.566;2023-08-21T11:25:05;7.55;;;6.30;;
63201;SDS011;49296;48.188;11.566;2023-08-21T11:27:32;7.95;;;7.05;;
63201;SDS011;49296;48.188;11.566;2023-08-21T11:29:59;9.75;;;7.28;;
63201;SDS011;49296;48.188;11.566;2023-08-21T11:32:27;9.27;;;7.78;;
63201;SDS011;49296;48.188;11.566;2023-08-21T11:34:54;8.48;;;7.45;;
63201;SDS011;49296;48.188;11.566;2023-08-21T11:37:23;8.30;;;7.43;;
63201;SDS011;49296;48.188;11.566;2023-08-21T11:39:52;9.43;;;7.68;;
63201;SDS011;49296;48.188;11.566;2023-08-21T11:42:21;7.97;;;7.18;;
63201;SDS011;49296;48.188;11.566;2023-08-21T11:44:49;7.25;;;6.55;;
63201;SDS011;49296;48.188;11.566;2023-08-21T11:47:18;8.52;;;6.47;;
63201;SDS011;49296;48.188;11.566;2023-08-21T11:49:47;7.63;;;6.25;;
63201;SDS011;49296;48.188;11.566;2023-08-21T11:52:17;8.05;;;6.40;;
63201;SDS011;49296;48.188;11.566;2023-08-21T11:54:46;6.68;;;5.88;;
63201;SDS011;49296;48.188;11.566;2023-08-21T11:57:14;8.00;;;6.47;;
63201;SDS011;49296;48.188;11.566;2023-08-21T11:59:42;9.35;;;6.63;;
63201;SDS011;49296;48.188;11.566;2023-08-21T12:02:10;7.05;;;6.35;;
63201;SDS011;49296;48.188;11.566;2023-08-21T12:04:38;6.88;;;6.03;;
63201;SDS011;49296;48.188;11.566;2023-08-21T12:07:05;8.75;;;6.32;;
63201;SDS011;49296;48.188;11.566;2023-08-21T12:09:32;7.25;;;6.55;;
63201;SDS011;49296;48.188;11.566;2023-08-21T12:11:58;7.40;;;6.43;;
63201;SDS011;49296;48.188;11.566;2023-08-21T12:14:26;7.82;;;6.32;;
63201;SDS011;49296;48.188;11.566;2023-08-21T12:16:55;7.05;;;6.38;;
63201;SDS011;49296;48.188;11.566;2023-08-21T12:19:22;7.35;;;6.55;;
63201;SDS011;49296;48.188;11.566;2023-08-21T12:21:49;7.47;;;6.68;;
63201;SDS011;49296;48.188;11.566;2023-08-21T12:24:16;8.25;;;6.45;;
63201;SDS011;49296;48.188;11.566;2023-08-21T12:26:43;7.15;;;6.40;;
63201;SDS011;49296;48.188;11.566;2023-08-21T12:29:10;8.35;;;7.05;;
63201;SDS011;49296;48.188;11.566;2023-08-21T12:31:36;10.20;;;7.28;;
63201;SDS011;49296;48.188;11.566;2023-08-21T12:34:04;8.45;;;7.55;;
63201;SDS011;49296;48.188;11.566;2023-08-21T12:36:33;7.50;;;6.70;;
63201;SDS011;49296;48.188;11.566;2023-08-21T12:39:00;9.88;;;7.20;;
63201;SDS011;49296;48.188;11.566;2023-08-21T12:41:27;7.70;;;6.78;;
63201;SDS011;49296;48.188;11.566;2023-08-21T12:43:54;7.97;;;7.18;;
63201;SDS011;49296;48.188;11.566;2023-08-21T12:46:20;8.88;;;7.00;;
63201;SDS011;49296;48.188;11.566;2023-08-21T12:48:48;8.30;;;6.60;;
63201;SDS011;49296;48.188;11.566;2023-08-21T12:51:16;8.10;;;6.50;;
63201;SDS011;49296;48.188;11.566;2023-08-21T12:53:43;7.63;;;6.82;;
63201;SDS011;49296;48.188;11.566;2023-08-21T12:56:09;8.00;;;7.20;;
63201;SDS011;49296;48.188;11.566;2023-08-21T12:58:36;7.40;;;6.70;;
63201;SDS011;49296;48.188;11.566;2023-08-21T13:01:02;7.60;;;6.80;;
63201;SDS011;49296;48.188;11.566;2023-08-21T13:03:30;7.40;;;6.60;;
63201;SDS011;49296;48.188;11.566;2023-08-21T13:05:57;6.70;;;5.88;;
63201;SDS011;49296;48.188;11.566;2023-08-21T13:08:24;8.40;;;6.88;;
63201;SDS011;49296;48.188;11.566;2023-08-21T13:10:52;8.33;;;6.90;;
63201;SDS011;49296;48.188;11.566;2023-08-21T13:13:18;9.50;;;6.30;;
63201;SDS011;49296;48.188;11.566;2023-08-21T13:15:45;7.85;;;5.72;;
63201;SDS011;49296;48.188;11.566;2023-08-21T13:18:12;9.35;;;6.43;;
63201;SDS011;49296;48.188;11.566;2023-08-21T13:20:39;7.30;;;6.00;;
63201;SDS011;49296;48.188;11.566;2023-08-21T13:23:06;7.00;;;5.53;;
63201;SDS011;49296;48.188;11.566;2023-08-21T13:25:34;6.95;;;5.85;;
63201;SDS011;49296;48.188;11.566;2023-08-21T13:28:01;7.90;;;6.43;;
63201;SDS011;49296;48.188;11.566;2023-08-21T13:30:29;8.57;;;6.53;;
63201;SDS011;49296;48.188;11.566;2023-08-21T13:32:56;7.28;;;6.45;;
63201;SDS011;49296;48.188;11.566;2023-08-21T13:35:23;9.13;;;7.30;;
63201;SDS011;49296;48.188;11.566;2023-08-21T13:37:50;8.88;;;6.63;;
63201;SDS011;49296;48.188;11.566;2023-08-21T13:40:16;8.25;;;6.88;;
63201;SDS011;49296;48.188;11.566;2023-08-21T13:42:46;8.10;;;6.65;;
63201;SDS011;49296;48.188;11.566;2023-08-21T13:45:14;8.15;;;7.10;;
63201;SDS011;49296;48.188;11.566;2023-08-21T13:47:43;7.40;;;6.70;;
63201;SDS011;49296;48.188;11.566;2023-08-21T13:50:11;9.25;;;7.68;;
63201;SDS011;49296;48.188;11.566;2023-08-21T13:52:38;7.95;;;7.15;;
63201;SDS011;49296;48.188;11.566;2023-08-21T13:55:05;8.88;;;7.50;;
63201;SDS011;49296;48.188;11.566;2023-08-21T13:57:33;7.30;;;6.32;;
63201;SDS011;49296;48.188;11.566;2023-08-21T14:00:02;8.10;;;6.80;;
63201;SDS011;49296;48.188;11.566;2023-08-21T14:02:32;7.20;;;6.50;;
63201;SDS011;49296;48.188;11.566;2023-08-21T14:04:59;6.95;;;6.32;;
63201;SDS011;49296;48.188;11.566;2023-08-21T14:07:25;8.93;;;7.10;;
63201;SDS011;49296;48.188;11.566;2023-08-21T14:09:52;7.95;;;6.78;;
63201;SDS011;49296;48.188;11.566;2023-08-21T14:12:19;6.95;;;6.30;;
63201;SDS011;49296;48.188;11.566;2023-08-21T14:14:45;6.97;;;6.20;;
63201;SDS011;49296;48.188;11.566;2023-08-21T14:17:13;9.70;;;6.50;;
63201;SDS011;49296;48.188;11.566;2023-08-21T14:19:40;10.65;;;7.25;;
63201;SDS011;49296;48.188;11.566;2023-08-21T14:22:07;8.57;;;6.68;;
63201;SDS011;49296;48.188;11.566;2023-08-21T14:24:33;7.47;;;6.63;;
63201;SDS011;49296;48.188;11.566;2023-08-21T14:27:00;7.40;;;6.20;;
63201;SDS011;49296;48.188;11.566;2023-08-21T14:29:27;7.05;;;6.35;;
63201;SDS011;49296;48.188;11.566;2023-08-21T14:31:54;8.35;;;6.40;;